»·PEaware :: N23678 KSNA-KSNA

N23678 :: KSNA-KSNA

FLIGHT INFORMATION

Flight Status: Arrived
Operator: Privately registered:
United States
More flights under this callsign
Pilot: Brian C. (31715)
Aircraft: CESSNA 172 SKYHAWK
(C172)
More flights by this aircraft type
Origin: KSNA John Wayne-Orange Co
United States
Destination: KSNA John Wayne-Orange Co
United States
More flights between these airports :: More routes between these airports
Route: +SLI
File this flight plan on PilotEdge
Remarks: ILS 20R and RNAV 20R practice
Altitude:
(Current/Filed)
3,000ft
Speed:
(Current/Filed)
110kts
Departed: 20-Nov-20 10:43 AM
Arrived: 20-Nov-20 11:49 AM
Distance/Time
Traveled:
0nm/1:06
Distance/Time
To Go:
Arrived

Flight Plot

Page will automatically refresh every two minutes.


Map Options




Map Legend


Flown Route
Filed Route
Departure Airport
Arrival Airport
Navaid (VOR, NDB)
Fix

Horizontal Profiles

Position Reports

Time Latitude Longitude Heading Altitude Ground
Speed
20-Nov-20 10:18 33.672862 -117.866672 10 54ft 0kts
20-Nov-20 10:19 33.672862 -117.866672 10 54ft 0kts
20-Nov-20 10:20 33.672862 -117.866672 10 54ft 0kts
20-Nov-20 10:21 33.672862 -117.866672 10 54ft 0kts
20-Nov-20 10:22 33.672862 -117.866672 10 54ft 0kts
20-Nov-20 10:23 33.672862 -117.866672 10 54ft 0kts
20-Nov-20 10:24 33.672862 -117.866672 10 54ft 0kts
20-Nov-20 10:25 33.672862 -117.866672 10 54ft 0kts
20-Nov-20 10:26 33.672862 -117.866672 10 54ft 0kts
20-Nov-20 10:27 33.672862 -117.866672 10 54ft 0kts
20-Nov-20 10:28 33.672862 -117.866672 10 54ft 0kts
20-Nov-20 10:29 33.672862 -117.866672 10 54ft 0kts
20-Nov-20 10:30 33.672862 -117.866672 9 54ft 0kts
20-Nov-20 10:31 33.672862 -117.866672 9 54ft 0kts
20-Nov-20 10:32 33.672862 -117.866672 9 54ft 0kts
20-Nov-20 10:33 33.672862 -117.866672 9 54ft 0kts
20-Nov-20 10:34 33.672862 -117.866672 9 54ft 0kts
20-Nov-20 10:35 33.672862 -117.866672 9 54ft 0kts
20-Nov-20 10:36 33.672862 -117.866672 9 54ft 0kts
20-Nov-20 10:37 33.672863 -117.866672 9 54ft 0kts
20-Nov-20 10:38 33.675181 -117.866402 25 55ft 21kts
20-Nov-20 10:39 33.679726 -117.863549 23 45ft 7kts
20-Nov-20 10:40 33.679892 -117.863539 326 45ft 0kts
20-Nov-20 10:41 33.679930 -117.863578 316 45ft 4kts
20-Nov-20 10:42 33.671214 -117.870047 210 275ft 70kts
20-Nov-20 10:43 33.657810 -117.889398 236 995ft 81kts
20-Nov-20 10:44 33.643807 -117.913444 235 1757ft 87kts
20-Nov-20 10:45 33.627705 -117.939004 232 2026ft 107kts
20-Nov-20 10:46 33.627147 -117.967587 341 2236ft 93kts
20-Nov-20 10:47 33.649117 -117.959594 21 2934ft 77kts
20-Nov-20 10:48 33.674102 -117.947826 23 3010ft 107kts
20-Nov-20 10:49 33.702819 -117.934464 20 2967ft 117kts
20-Nov-20 10:50 33.732617 -117.919732 23 2990ft 111kts
20-Nov-20 10:51 33.761759 -117.905644 18 3054ft 114kts
20-Nov-20 10:52 33.791596 -117.891787 23 3048ft 115kts
20-Nov-20 10:53 33.821597 -117.876619 24 2999ft 117kts
20-Nov-20 10:54 33.851837 -117.861880 22 2978ft 116kts
20-Nov-20 10:55 33.880306 -117.845823 63 2994ft 118kts
20-Nov-20 10:56 33.871071 -117.809872 110 3024ft 114kts
20-Nov-20 10:57 33.853287 -117.782098 187 3018ft 115kts
20-Nov-20 10:58 33.822012 -117.784235 181 2931ft 117kts
20-Nov-20 10:59 33.791220 -117.796014 212 2404ft 122kts
20-Nov-20 11:00 33.761584 -117.814212 205 1752ft 111kts
20-Nov-20 11:01 33.734095 -117.831676 204 1271ft 113kts
20-Nov-20 11:02 33.708203 -117.848645 205 645ft 102kts
20-Nov-20 11:03 33.683289 -117.864219 208 571ft 83kts
20-Nov-20 11:04 33.663388 -117.876671 211 1330ft 81kts
20-Nov-20 11:05 33.646323 -117.890990 206 2116ft 70kts
20-Nov-20 11:06 33.636879 -117.909432 316 2756ft 86kts
20-Nov-20 11:07 33.664382 -117.915852 354 3123ft 110kts
20-Nov-20 11:08 33.698473 -117.921488 349 3076ft 127kts
20-Nov-20 11:09 33.732607 -117.927440 350 2984ft 112kts
20-Nov-20 11:10 33.763533 -117.933546 354 3024ft 119kts
20-Nov-20 11:11 33.793159 -117.917009 34 3009ft 117kts
20-Nov-20 11:12 33.821195 -117.895822 32 2982ft 116kts
20-Nov-20 11:13 33.848660 -117.875470 31 2968ft 122kts
20-Nov-20 11:14 33.876585 -117.854438 31 3051ft 112kts
20-Nov-20 11:15 33.893296 -117.827148 102 3072ft 117kts
20-Nov-20 11:16 33.886289 -117.787695 104 2968ft 118kts
20-Nov-20 11:18 33.871908 -117.757793 185 3050ft 113kts
20-Nov-20 11:19 33.840453 -117.765779 195 3017ft 119kts
20-Nov-20 11:20 33.811230 -117.783180 207 3025ft 117kts
20-Nov-20 11:21 33.783526 -117.800848 208 2544ft 123kts
20-Nov-20 11:22 33.753610 -117.820012 205 1682ft 117kts
20-Nov-20 11:23 33.728978 -117.835768 206 1041ft 95kts
20-Nov-20 11:24 33.704800 -117.850442 206 568ft 107kts
20-Nov-20 11:25 33.678942 -117.866882 211 588ft 91kts
20-Nov-20 11:26 33.659094 -117.879564 208 1511ft 76kts
20-Nov-20 11:27 33.661703 -117.895931 353 2195ft 88kts
20-Nov-20 11:28 33.684059 -117.899921 349 2972ft 87kts
20-Nov-20 11:29 33.714345 -117.903964 354 3083ft 122kts
20-Nov-20 11:30 33.747722 -117.910204 351 3021ft 119kts
20-Nov-20 11:31 33.779085 -117.901209 23 2946ft 119kts
20-Nov-20 11:32 33.809409 -117.886761 21 2988ft 117kts
20-Nov-20 11:33 33.839915 -117.871658 22 2945ft 119kts
20-Nov-20 11:34 33.869816 -117.856488 22 3024ft 116kts
20-Nov-20 11:34 33.895337 -117.844144 21 2992ft 118kts
20-Nov-20 11:36 33.931131 -117.826988 20 2968ft 119kts
20-Nov-20 11:36 33.937914 -117.798193 94 2934ft 118kts
20-Nov-20 11:37 33.937304 -117.759324 92 3035ft 116kts
20-Nov-20 11:38 33.918254 -117.743128 191 2953ft 119kts
20-Nov-20 11:39 33.886771 -117.755017 199 2852ft 118kts
20-Nov-20 11:40 33.855213 -117.765260 194 2870ft 110kts
20-Nov-20 11:41 33.825816 -117.777153 199 2870ft 120kts
20-Nov-20 11:42 33.795939 -117.793924 211 2736ft 123kts
20-Nov-20 11:43 33.769566 -117.810268 207 1820ft 99kts
20-Nov-20 11:44 33.745641 -117.824725 208 1154ft 89kts
20-Nov-20 11:45 33.723919 -117.838493 208 713ft 94kts
20-Nov-20 11:46 33.702736 -117.851720 208 579ft 76kts
20-Nov-20 11:47 33.683822 -117.863741 208 158ft 78kts
20-Nov-20 11:48 33.675964 -117.869784 297 55ft 0kts
20-Nov-20 11:49 33.676596 -117.870882 18 52ft 0kts
20-Nov-20 11:50 33.676597 -117.870718 118 52ft 0kts

Navigation Log

Ident Type
Flight plan parsing failed, navigation log unavailable